sensor_id;sensor_type;location;lat;lon;timestamp;pressure;altitude;pressure_sealevel;temperature;humidity
21980;BME280;11154;48.558;9.234;2022-09-09T00:01:56;97194.63;;;16.58;100.00
21980;BME280;11154;48.558;9.234;2022-09-09T00:04:05;97197.31;;;16.58;100.00
21980;BME280;11154;48.558;9.234;2022-09-09T00:06:18;97202.28;;;16.55;100.00
21980;BME280;11154;48.558;9.234;2022-09-09T00:08:29;97198.97;;;16.59;100.00
21980;BME280;11154;48.558;9.234;2022-09-09T00:10:37;97194.22;;;16.55;100.00
21980;BME280;11154;48.558;9.234;2022-09-09T00:12:48;97189.28;;;16.52;100.00
21980;BME280;11154;48.558;9.234;2022-09-09T00:14:59;97183.06;;;16.51;100.00
21980;BME280;11154;48.558;9.234;2022-09-09T00:17:09;97179.34;;;16.52;100.00
21980;BME280;11154;48.558;9.234;2022-09-09T00:19:20;97175.03;;;16.58;100.00
21980;BME280;11154;48.558;9.234;2022-09-09T00:21:28;97185.34;;;16.61;100.00
21980;BME280;11154;48.558;9.234;2022-09-09T00:23:34;97176.03;;;16.63;100.00
21980;BME280;11154;48.558;9.234;2022-09-09T00:25:41;97171.91;;;16.61;100.00
21980;BME280;11154;48.558;9.234;2022-09-09T00:27:48;97165.72;;;16.66;100.00
21980;BME280;11154;48.558;9.234;2022-09-09T00:29:53;97168.41;;;16.66;100.00
21980;BME280;11154;48.558;9.234;2022-09-09T00:31:57;97167.81;;;16.64;100.00
21980;BME280;11154;48.558;9.234;2022-09-09T00:34:11;97174.78;;;16.65;100.00
21980;BME280;11154;48.558;9.234;2022-09-09T00:36:15;97179.78;;;16.62;100.00
21980;BME280;11154;48.558;9.234;2022-09-09T00:38:20;97180.19;;;16.53;100.00
21980;BME280;11154;48.558;9.234;2022-09-09T00:40:30;97175.63;;;16.47;100.00
21980;BME280;11154;48.558;9.234;2022-09-09T00:42:37;97182.66;;;16.48;100.00
21980;BME280;11154;48.558;9.234;2022-09-09T00:44:55;97184.31;;;16.42;100.00
21980;BME280;11154;48.558;9.234;2022-09-09T00:47:04;97182.88;;;16.46;100.00
21980;BME280;11154;48.558;9.234;2022-09-09T00:49:17;97186.16;;;16.42;100.00
21980;BME280;11154;48.558;9.234;2022-09-09T00:51:28;97189.28;;;16.39;100.00
21980;BME280;11154;48.558;9.234;2022-09-09T00:53:36;97183.47;;;16.42;100.00
21980;BME280;11154;48.558;9.234;2022-09-09T00:55:45;97185.13;;;16.43;100.00
21980;BME280;11154;48.558;9.234;2022-09-09T00:57:52;97186.78;;;16.44;100.00
21980;BME280;11154;48.558;9.234;2022-09-09T01:00:14;97182.06;;;16.46;100.00
21980;BME280;11154;48.558;9.234;2022-09-09T01:02:26;97180.19;;;16.53;100.00
21980;BME280;11154;48.558;9.234;2022-09-09T01:04:34;97186.19;;;16.48;100.00
21980;BME280;11154;48.558;9.234;2022-09-09T01:06:38;97185.16;;;16.49;100.00
21980;BME280;11154;48.558;9.234;2022-09-09T01:08:52;97181.84;;;16.47;100.00
21980;BME280;11154;48.558;9.234;2022-09-09T01:11:00;97184.91;;;16.44;100.00
21980;BME280;11154;48.558;9.234;2022-09-09T01:13:08;97190.50;;;16.43;100.00
21980;BME280;11154;48.558;9.234;2022-09-09T01:15:17;97183.06;;;16.45;100.00
21980;BME280;11154;48.558;9.234;2022-09-09T01:17:25;97182.44;;;16.43;100.00
21980;BME280;11154;48.558;9.234;2022-09-09T01:19:40;97179.97;;;16.41;100.00
21980;BME280;11154;48.558;9.234;2022-09-09T01:21:50;97178.94;;;16.36;100.00
21980;BME280;11154;48.558;9.234;2022-09-09T01:24:19;97172.53;;;16.37;100.00
21980;BME280;11154;48.558;9.234;2022-09-09T01:26:26;97171.09;;;16.41;100.00
21980;BME280;11154;48.558;9.234;2022-09-09T01:28:28;97176.44;;;16.41;100.00
21980;BME280;11154;48.558;9.234;2022-09-09T01:30:32;97177.69;;;16.38;100.00
21980;BME280;11154;48.558;9.234;2022-09-09T01:32:40;97179.75;;;16.43;100.00
21980;BME280;11154;48.558;9.234;2022-09-09T01:34:42;97184.72;;;16.39;100.00
21980;BME280;11154;48.558;9.234;2022-09-09T01:36:47;97189.28;;;16.39;100.00
21980;BME280;11154;48.558;9.234;2022-09-09T01:38:51;97188.84;;;16.35;100.00
21980;BME280;11154;48.558;9.234;2022-09-09T01:40:53;97189.25;;;16.32;100.00
21980;BME280;11154;48.558;9.234;2022-09-09T01:42:57;97190.91;;;16.33;100.00
21980;BME280;11154;48.558;9.234;2022-09-09T01:44:58;97184.28;;;16.36;100.00
21980;BME280;11154;48.558;9.234;2022-09-09T01:47:00;97189.47;;;16.31;100.00
21980;BME280;11154;48.558;9.234;2022-09-09T01:49:03;97188.81;;;16.29;100.00
21980;BME280;11154;48.558;9.234;2022-09-09T01:51:07;97193.31;;;16.22;100.00
21980;BME280;11154;48.558;9.234;2022-09-09T01:53:11;97194.78;;;16.18;100.00
21980;BME280;11154;48.558;9.234;2022-09-09T01:55:13;97199.75;;;16.21;100.00
21980;BME280;11154;48.558;9.234;2022-09-09T01:57:18;97207.38;;;16.17;100.00
21980;BME280;11154;48.558;9.234;2022-09-09T01:59:38;97200.75;;;16.13;100.00
21980;BME280;11154;48.558;9.234;2022-09-09T02:01:53;97210.44;;;16.08;100.00
21980;BME280;11154;48.558;9.234;2022-09-09T02:04:02;97205.91;;;16.15;100.00
21980;BME280;11154;48.558;9.234;2022-09-09T02:06:14;97210.25;;;16.16;100.00
21980;BME280;11154;48.558;9.234;2022-09-09T02:08:26;97206.75;;;16.15;100.00
21980;BME280;11154;48.558;9.234;2022-09-09T02:10:32;97197.44;;;16.11;100.00
21980;BME280;11154;48.558;9.234;2022-09-09T02:12:35;97204.63;;;15.98;100.00
21980;BME280;11154;48.558;9.234;2022-09-09T02:14:42;97203.81;;;16.04;100.00
21980;BME280;11154;48.558;9.234;2022-09-09T02:16:52;97199.69;;;16.01;100.00
21980;BME280;11154;48.558;9.234;2022-09-09T02:19:01;97193.50;;;16.01;100.00
21980;BME280;11154;48.558;9.234;2022-09-09T02:21:05;97187.53;;;16.12;100.00
21980;BME280;11154;48.558;9.234;2022-09-09T02:23:09;97185.06;;;16.10;100.00
21980;BME280;11154;48.558;9.234;2022-09-09T02:25:16;97195.97;;;16.09;100.00
21980;BME280;11154;48.558;9.234;2022-09-09T02:27:20;97199.13;;;16.19;100.00
21980;BME280;11154;48.558;9.234;2022-09-09T02:29:26;97194.56;;;16.13;100.00
21980;BME280;11154;48.558;9.234;2022-09-09T02:31:32;97182.16;;;16.05;100.00
21980;BME280;11154;48.558;9.234;2022-09-09T02:33:40;97183.00;;;16.06;100.00
21980;BME280;11154;48.558;9.234;2022-09-09T02:35:45;97182.78;;;16.07;100.00
21980;BME280;11154;48.558;9.234;2022-09-09T02:37:49;97188.56;;;16.04;100.00
21980;BME280;11154;48.558;9.234;2022-09-09T02:39:51;97206.91;;;16.07;100.00
21980;BME280;11154;48.558;9.234;2022-09-09T02:41:53;97222.59;;;16.04;100.00
21980;BME280;11154;48.558;9.234;2022-09-09T02:43:54;97209.38;;;15.96;100.00
21980;BME280;11154;48.558;9.234;2022-09-09T02:46:03;97218.47;;;15.95;100.00
21980;BME280;11154;48.558;9.234;2022-09-09T02:48:17;97214.69;;;15.83;100.00
21980;BME280;11154;48.558;9.234;2022-09-09T02:50:25;97221.09;;;15.82;100.00
21980;BME280;11154;48.558;9.234;2022-09-09T02:52:37;97216.16;;;15.86;100.00
21980;BME280;11154;48.558;9.234;2022-09-09T02:54:40;97212.84;;;15.90;100.00
21980;BME280;11154;48.558;9.234;2022-09-09T02:56:49;97215.16;;;15.93;100.00
21980;BME280;11154;48.558;9.234;2022-09-09T02:58:54;97207.31;;;15.98;100.00
21980;BME280;11154;48.558;9.234;2022-09-09T03:00:57;97204.63;;;15.98;100.00
21980;BME280;11154;48.558;9.234;2022-09-09T03:03:01;97201.34;;;16.02;100.00
21980;BME280;11154;48.558;9.234;2022-09-09T03:05:06;97200.13;;;16.05;100.00
21980;BME280;11154;48.558;9.234;2022-09-09T03:07:08;97207.13;;;16.12;100.00
21980;BME280;11154;48.558;9.234;2022-09-09T03:09:10;97202.59;;;16.06;100.00
21980;BME280;11154;48.558;9.234;2022-09-09T03:11:12;97202.78;;;16.05;100.00
21980;BME280;11154;48.558;9.234;2022-09-09T03:13:14;97206.72;;;16.09;100.00
21980;BME280;11154;48.558;9.234;2022-09-09T03:15:16;97201.59;;;16.14;100.00
21980;BME280;11154;48.558;9.234;2022-09-09T03:17:18;97205.50;;;16.18;100.00
21980;BME280;11154;48.558;9.234;2022-09-09T03:19:20;97204.47;;;16.19;100.00
21980;BME280;11154;48.558;9.234;2022-09-09T03:21:23;97209.84;;;16.19;100.00
21980;BME280;11154;48.558;9.234;2022-09-09T03:23:25;97217.69;;;16.20;100.00
21980;BME280;11154;48.558;9.234;2022-09-09T03:25:28;97217.22;;;16.04;100.00
21980;BME280;11154;48.558;9.234;2022-09-09T03:27:30;97214.72;;;15.96;100.00
21980;BME280;11154;48.558;9.234;2022-09-09T03:29:31;97213.50;;;15.92;100.00
21980;BME280;11154;48.558;9.234;2022-09-09T03:31:33;97216.38;;;15.90;100.00
21980;BME280;11154;48.558;9.234;2022-09-09T03:33:36;97223.81;;;15.95;100.00
21980;BME280;11154;48.558;9.234;2022-09-09T03:35:38;97222.56;;;15.91;100.00
21980;BME280;11154;48.558;9.234;2022-09-09T03:37:41;97221.97;;;15.95;100.00
21980;BME280;11154;48.558;9.234;2022-09-09T03:39:43;97223.81;;;15.95;100.00
21980;BME280;11154;48.558;9.234;2022-09-09T03:41:44;97214.34;;;15.99;100.00
21980;BME280;11154;48.558;9.234;2022-09-09T03:43:48;97228.16;;;16.02;100.00
21980;BME280;11154;48.558;9.234;2022-09-09T03:45:49;97218.50;;;16.08;100.00
21980;BME280;11154;48.558;9.234;2022-09-09T03:47:51;97213.94;;;16.08;100.00
21980;BME280;11154;48.558;9.234;2022-09-09T03:49:53;97220.13;;;16.09;100.00
21980;BME280;11154;48.558;9.234;2022-09-09T03:51:54;97213.53;;;16.11;100.00
21980;BME280;11154;48.558;9.234;2022-09-09T03:53:58;97205.91;;;16.15;100.00
21980;BME280;11154;48.558;9.234;2022-09-09T03:55:59;97202.81;;;16.24;100.00
21980;BME280;11154;48.558;9.234;2022-09-09T03:58:01;97198.75;;;16.28;100.00
21980;BME280;11154;48.558;9.234;2022-09-09T04:00:03;97192.97;;;16.31;100.00
21980;BME280;11154;48.558;9.234;2022-09-09T04:02:05;97198.56;;;16.36;100.00
21980;BME280;11154;48.558;9.234;2022-09-09T04:04:07;97201.66;;;16.40;100.00
21980;BME280;11154;48.558;9.234;2022-09-09T04:06:10;97204.53;;;16.45;100.00
21980;BME280;11154;48.558;9.234;2022-09-09T04:08:13;97212.78;;;16.30;100.00
21980;BME280;11154;48.558;9.234;2022-09-09T04:10:16;97213.16;;;16.27;100.00
21980;BME280;11154;48.558;9.234;2022-09-09T04:12:18;97208.19;;;16.24;100.00
21980;BME280;11154;48.558;9.234;2022-09-09T04:14:19;97204.88;;;16.16;100.00
21980;BME280;11154;48.558;9.234;2022-09-09T04:16:21;97201.34;;;16.09;100.00
21980;BME280;11154;48.558;9.234;2022-09-09T04:18:23;97201.97;;;16.11;100.00
21980;BME280;11154;48.558;9.234;2022-09-09T04:20:26;97206.28;;;16.05;100.00
21980;BME280;11154;48.558;9.234;2022-09-09T04:22:28;97202.97;;;15.97;100.00
21980;BME280;11154;48.558;9.234;2022-09-09T04:24:29;97200.72;;;15.94;100.00
21980;BME280;11154;48.558;9.234;2022-09-09T04:26:32;97202.75;;;15.92;100.00
21980;BME280;11154;48.558;9.234;2022-09-09T04:28:36;97197.00;;;15.95;100.00
21980;BME280;11154;48.558;9.234;2022-09-09T04:30:38;97193.28;;;15.96;100.00
21980;BME280;11154;48.558;9.234;2022-09-09T04:32:40;97185.44;;;15.94;100.00
21980;BME280;11154;48.558;9.234;2022-09-09T04:34:42;97193.91;;;15.98;100.00
21980;BME280;11154;48.558;9.234;2022-09-09T04:36:45;97201.56;;;16.01;100.00
21980;BME280;11154;48.558;9.234;2022-09-09T04:38:46;97206.91;;;16.01;100.00
21980;BME280;11154;48.558;9.234;2022-09-09T04:40:50;97211.06;;;16.03;100.00
21980;BME280;11154;48.558;9.234;2022-09-09T04:42:55;97206.91;;;16.07;100.00
21980;BME280;11154;48.558;9.234;2022-09-09T04:44:58;97204.44;;;16.12;100.00
21980;BME280;11154;48.558;9.234;2022-09-09T04:47:00;97201.97;;;16.11;100.00
21980;BME280;11154;48.558;9.234;2022-09-09T04:49:01;97205.28;;;16.13;100.00
21980;BME280;11154;48.558;9.234;2022-09-09T04:51:05;97212.72;;;16.11;100.00
21980;BME280;11154;48.558;9.234;2022-09-09T04:53:07;97210.63;;;16.06;100.00
21980;BME280;11154;48.558;9.234;2022-09-09T04:55:08;97201.97;;;16.11;100.00
21980;BME280;11154;48.558;9.234;2022-09-09T04:57:11;97211.06;;;16.10;100.00
21980;BME280;11154;48.558;9.234;2022-09-09T04:59:14;97211.47;;;16.13;100.00
21980;BME280;11154;48.558;9.234;2022-09-09T05:01:17;97208.16;;;16.11;100.00
21980;BME280;11154;48.558;9.234;2022-09-09T05:03:19;97210.63;;;16.06;100.00
21980;BME280;11154;48.558;9.234;2022-09-09T05:05:21;97214.38;;;16.12;100.00
21980;BME280;11154;48.558;9.234;2022-09-09T05:07:22;97211.06;;;16.10;100.00
21980;BME280;11154;48.558;9.234;2022-09-09T05:09:26;97209.19;;;16.04;100.00
21980;BME280;11154;48.558;9.234;2022-09-09T05:11:29;97202.97;;;15.97;100.00
21980;BME280;11154;48.558;9.234;2022-09-09T05:13:32;97206.88;;;15.94;100.00
21980;BME280;11154;48.558;9.234;2022-09-09T05:15:35;97201.13;;;15.97;100.00
21980;BME280;11154;48.558;9.234;2022-09-09T05:17:37;97206.28;;;15.99;100.00
21980;BME280;11154;48.558;9.234;2022-09-09T05:19:38;97205.47;;;16.05;100.00
21980;BME280;11154;48.558;9.234;2022-09-09T05:21:40;97214.38;;;16.12;100.00
21980;BME280;11154;48.558;9.234;2022-09-09T05:23:42;97225.94;;;16.19;100.00
21980;BME280;11154;48.558;9.234;2022-09-09T05:25:54;97222.41;;;16.18;100.00
21980;BME280;11154;48.558;9.234;2022-09-09T05:27:58;97230.03;;;16.15;100.00
21980;BME280;11154;48.558;9.234;2022-09-09T05:30:00;97226.75;;;16.13;100.00
21980;BME280;11154;48.558;9.234;2022-09-09T05:32:03;97225.72;;;16.14;100.00
21980;BME280;11154;48.558;9.234;2022-09-09T05:34:05;97232.72;;;16.15;100.00
21980;BME280;11154;48.558;9.234;2022-09-09T05:36:07;97225.13;;;16.25;100.00
21980;BME280;11154;48.558;9.234;2022-09-09T05:38:11;97219.59;;;16.33;100.00
21980;BME280;11154;48.558;9.234;2022-09-09T05:40:12;97225.81;;;16.40;100.00
21980;BME280;11154;48.558;9.234;2022-09-09T05:42:14;97235.53;;;16.47;100.00
21980;BME280;11154;48.558;9.234;2022-09-09T05:44:16;97236.75;;;16.51;100.00
21980;BME280;11154;48.558;9.234;2022-09-09T05:46:20;97237.59;;;16.52;100.00
21980;BME280;11154;48.558;9.234;2022-09-09T05:48:24;97247.69;;;16.50;100.00
21980;BME280;11154;48.558;9.234;2022-09-09T05:50:25;97235.72;;;16.52;100.00
21980;BME280;11154;48.558;9.234;2022-09-09T05:52:27;97236.56;;;16.53;100.00
21980;BME280;11154;48.558;9.234;2022-09-09T05:54:29;97238.00;;;16.55;100.00
21980;BME280;11154;48.558;9.234;2022-09-09T05:56:30;97239.47;;;16.58;100.00
21980;BME280;11154;48.558;9.234;2022-09-09T05:58:33;97235.94;;;16.63;100.00
21980;BME280;11154;48.558;9.234;2022-09-09T06:00:35;97245.88;;;16.69;100.00
21980;BME280;11154;48.558;9.234;2022-09-09T06:02:37;97238.81;;;16.75;100.00
21980;BME280;11154;48.558;9.234;2022-09-09T06:04:40;97245.88;;;16.82;100.00
21980;BME280;11154;48.558;9.234;2022-09-09T06:06:42;97242.16;;;16.83;100.00
21980;BME280;11154;48.558;9.234;2022-09-09T06:08:44;97241.72;;;16.86;100.00
21980;BME280;11154;48.558;9.234;2022-09-09T06:10:46;97239.44;;;16.90;100.00
21980;BME280;11154;48.558;9.234;2022-09-09T06:12:47;97244.22;;;16.94;100.00
21980;BME280;11154;48.558;9.234;2022-09-09T06:14:49;97238.00;;;17.00;100.00
21980;BME280;11154;48.558;9.234;2022-09-09T06:16:52;97239.03;;;17.06;100.00
21980;BME280;11154;48.558;9.234;2022-09-09T06:18:54;97242.16;;;17.09;100.00
21980;BME280;11154;48.558;9.234;2022-09-09T06:20:59;97245.25;;;17.13;100.00
21980;BME280;11154;48.558;9.234;2022-09-09T06:23:03;97247.28;;;17.17;100.00
21980;BME280;11154;48.558;9.234;2022-09-09T06:25:06;97249.56;;;17.20;100.00
21980;BME280;11154;48.558;9.234;2022-09-09T06:27:08;97250.78;;;17.24;100.00
21980;BME280;11154;48.558;9.234;2022-09-09T06:29:11;97239.66;;;17.27;100.00
21980;BME280;11154;48.558;9.234;2022-09-09T06:31:14;97243.34;;;17.26;100.00
21980;BME280;11154;48.558;9.234;2022-09-09T06:33:17;97242.94;;;17.29;100.00
21980;BME280;11154;48.558;9.234;2022-09-09T06:35:19;97248.31;;;17.29;100.00
21980;BME280;11154;48.558;9.234;2022-09-09T06:37:22;97239.44;;;17.35;100.00
21980;BME280;11154;48.558;9.234;2022-09-09T06:39:24;97234.69;;;17.31;100.00
21980;BME280;11154;48.558;9.234;2022-09-09T06:41:27;97232.59;;;17.39;100.00
21980;BME280;11154;48.558;9.234;2022-09-09T06:43:29;97234.25;;;17.40;100.00
21980;BME280;11154;48.558;9.234;2022-09-09T06:45:31;97229.88;;;17.45;100.00
21980;BME280;11154;48.558;9.234;2022-09-09T06:47:32;97234.22;;;17.53;100.00
21980;BME280;11154;48.558;9.234;2022-09-09T06:49:35;97239.56;;;17.59;100.00
21980;BME280;11154;48.558;9.234;2022-09-09T06:51:37;97235.84;;;17.60;100.00
21980;BME280;11154;48.558;9.234;2022-09-09T06:53:45;97238.31;;;17.62;100.00
21980;BME280;11154;48.558;9.234;2022-09-09T06:55:47;97243.69;;;17.62;100.00
21980;BME280;11154;48.558;9.234;2022-09-09T06:57:50;97243.28;;;17.65;100.00
21980;BME280;11154;48.558;9.234;2022-09-09T06:59:52;97246.16;;;17.70;100.00
21980;BME280;11154;48.558;9.234;2022-09-09T07:01:53;97241.19;;;17.73;100.00
21980;BME280;11154;48.558;9.234;2022-09-09T07:03:56;97240.97;;;17.75;100.00
21980;BME280;11154;48.558;9.234;2022-09-09T07:05:59;97246.09;;;17.83;100.00
21980;BME280;11154;48.558;9.234;2022-09-09T07:08:01;97243.19;;;17.91;100.00
21980;BME280;11154;48.558;9.234;2022-09-09T07:10:05;97242.97;;;17.92;100.00
21980;BME280;11154;48.558;9.234;2022-09-09T07:12:07;97250.63;;;17.95;100.00
21980;BME280;11154;48.558;9.234;2022-09-09T07:14:10;97249.31;;;18.04;100.00
21980;BME280;11154;48.558;9.234;2022-09-09T07:16:14;97246.84;;;18.03;100.00
21980;BME280;11154;48.558;9.234;2022-09-09T07:18:16;97247.47;;;18.05;100.00
21980;BME280;11154;48.558;9.234;2022-09-09T07:20:18;97244.94;;;18.22;100.00
21980;BME280;11154;48.558;9.234;2022-09-09T07:22:20;97238.22;;;18.31;100.00
21980;BME280;11154;48.558;9.234;2022-09-09T07:24:22;97229.97;;;18.26;100.00
21980;BME280;11154;48.558;9.234;2022-09-09T07:26:27;97232.44;;;18.34;100.00
21980;BME280;11154;48.558;9.234;2022-09-09T07:28:29;97233.59;;;18.45;100.00
21980;BME280;11154;48.558;9.234;2022-09-09T07:30:31;97229.81;;;18.52;100.00
21980;BME280;11154;48.558;9.234;2022-09-09T07:32:33;97222.19;;;18.49;100.00
21980;BME280;11154;48.558;9.234;2022-09-09T07:34:34;97224.00;;;18.55;100.00
21980;BME280;11154;48.558;9.234;2022-09-09T07:36:39;97232.41;;;18.65;100.00
21980;BME280;11154;48.558;9.234;2022-09-09T07:38:44;97238.91;;;18.82;100.00
21980;BME280;11154;48.558;9.234;2022-09-09T07:40:46;97239.09;;;18.87;100.00
21980;BME280;11154;48.558;9.234;2022-09-09T07:42:49;97252.13;;;18.90;100.00
21980;BME280;11154;48.558;9.234;2022-09-09T07:44:51;97252.34;;;18.88;100.00
21980;BME280;11154;48.558;9.234;2022-09-09T07:46:55;97257.41;;;19.03;100.00
21980;BME280;11154;48.558;9.234;2022-09-09T07:48:57;97262.56;;;19.11;100.00
21980;BME280;11154;48.558;9.234;2022-09-09T07:51:07;97257.31;;;19.16;100.00
21980;BME280;11154;48.558;9.234;2022-09-09T07:53:09;97264.78;;;19.14;100.00
21980;BME280;11154;48.558;9.234;2022-09-09T07:55:12;97261.22;;;19.20;100.00
21980;BME280;11154;48.558;9.234;2022-09-09T07:57:15;97268.78;;;19.29;100.00
21980;BME280;11154;48.558;9.234;2022-09-09T07:59:18;97267.84;;;19.42;100.00
21980;BME280;11154;48.558;9.234;2022-09-09T08:01:22;97271.59;;;19.41;100.00
21980;BME280;11154;48.558;9.234;2022-09-09T08:03:24;97268.09;;;19.40;100.00
21980;BME280;11154;48.558;9.234;2022-09-09T08:05:25;97265.31;;;19.47;100.00
21980;BME280;11154;48.558;9.234;2022-09-09T08:07:27;97264.72;;;19.45;100.00
21980;BME280;11154;48.558;9.234;2022-09-09T08:09:29;97280.31;;;19.43;100.00
21980;BME280;11154;48.558;9.234;2022-09-09T08:11:32;97273.88;;;19.44;100.00
21980;BME280;11154;48.558;9.234;2022-09-09T08:13:36;97274.03;;;19.49;100.00
21980;BME280;11154;48.558;9.234;2022-09-09T08:15:39;97274.94;;;19.60;100.00
21980;BME280;11154;48.558;9.234;2022-09-09T08:17:42;97271.56;;;19.83;100.00
21980;BME280;11154;48.558;9.234;2022-09-09T08:19:44;97269.38;;;19.91;100.00
21980;BME280;11154;48.558;9.234;2022-09-09T08:21:45;97271.72;;;20.06;100.00
21980;BME280;11154;48.558;9.234;2022-09-09T08:23:50;97267.97;;;20.07;100.00
21980;BME280;11154;48.558;9.234;2022-09-09T08:25:53;97276.31;;;20.05;100.00
21980;BME280;11154;48.558;9.234;2022-09-09T08:27:54;97277.13;;;20.06;100.00
21980;BME280;11154;48.558;9.234;2022-09-09T08:29:56;97267.53;;;20.10;100.00
21980;BME280;11154;48.558;9.234;2022-09-09T08:31:59;97275.53;;;20.16;100.00
21980;BME280;11154;48.558;9.234;2022-09-09T08:34:02;97281.31;;;20.20;100.00
21980;BME280;11154;48.558;9.234;2022-09-09T08:36:04;97280.66;;;20.24;100.00
21980;BME280;11154;48.558;9.234;2022-09-09T08:38:06;97284.69;;;20.33;99.92
21980;BME280;11154;48.558;9.234;2022-09-09T08:40:11;97269.66;;;20.37;97.39
21980;BME280;11154;48.558;9.234;2022-09-09T08:42:38;97280.28;;;20.50;97.37
21980;BME280;11154;48.558;9.234;2022-09-09T08:44:52;97284.47;;;20.64;96.09
21980;BME280;11154;48.558;9.234;2022-09-09T08:47:03;97284.97;;;20.72;95.55
21980;BME280;11154;48.558;9.234;2022-09-09T08:49:17;97288.66;;;20.78;95.22
21980;BME280;11154;48.558;9.234;2022-09-09T08:51:20;97285.50;;;20.81;93.91
21980;BME280;11154;48.558;9.234;2022-09-09T08:53:24;97280.19;;;20.86;95.01
21980;BME280;11154;48.558;9.234;2022-09-09T08:55:37;97288.47;;;20.91;94.36
21980;BME280;11154;48.558;9.234;2022-09-09T08:57:41;97281.22;;;21.03;96.67
21980;BME280;11154;48.558;9.234;2022-09-09T08:59:44;97280.63;;;21.12;93.30
21980;BME280;11154;48.558;9.234;2022-09-09T09:01:59;97277.00;;;21.18;91.62
21980;BME280;11154;48.558;9.234;2022-09-09T09:04:10;97278.75;;;21.12;91.21
21980;BME280;11154;48.558;9.234;2022-09-09T09:06:26;97276.72;;;21.08;91.73
21980;BME280;11154;48.558;9.234;2022-09-09T09:08:41;97280.38;;;21.02;91.14
21980;BME280;11154;48.558;9.234;2022-09-09T09:10:47;97284.34;;;21.00;88.00
21980;BME280;11154;48.558;9.234;2022-09-09T09:12:50;97281.78;;;20.93;86.31
21980;BME280;11154;48.558;9.234;2022-09-09T09:14:52;97288.91;;;20.88;85.34
21980;BME280;11154;48.558;9.234;2022-09-09T09:17:00;97281.50;;;20.83;86.09
21980;BME280;11154;48.558;9.234;2022-09-09T09:19:03;97278.78;;;20.83;84.94
21980;BME280;11154;48.558;9.234;2022-09-09T09:21:08;97271.97;;;20.81;85.29
21980;BME280;11154;48.558;9.234;2022-09-09T09:23:21;97277.13;;;20.82;85.97
21980;BME280;11154;48.558;9.234;2022-09-09T09:25:27;97267.84;;;20.78;86.34
21980;BME280;11154;48.558;9.234;2022-09-09T09:27:34;97268.22;;;20.82;84.04
21980;BME280;11154;48.558;9.234;2022-09-09T09:29:38;97266.47;;;20.87;85.84
21980;BME280;11154;48.558;9.234;2022-09-09T09:31:42;97269.31;;;20.92;84.47
21980;BME280;11154;48.558;9.234;2022-09-09T09:33:49;97264.72;;;20.93;84.43
21980;BME280;11154;48.558;9.234;2022-09-09T09:35:51;97261.78;;;21.05;86.66
21980;BME280;11154;48.558;9.234;2022-09-09T09:37:54;97265.91;;;21.08;86.48
21980;BME280;11154;48.558;9.234;2022-09-09T09:39:56;97262.50;;;21.12;85.36
21980;BME280;11154;48.558;9.234;2022-09-09T09:41:57;97262.50;;;21.12;83.61
21980;BME280;11154;48.558;9.234;2022-09-09T09:44:03;97257.38;;;21.22;84.56
21980;BME280;11154;48.558;9.234;2022-09-09T09:46:05;97265.72;;;21.32;82.68
21980;BME280;11154;48.558;9.234;2022-09-09T09:48:09;97261.94;;;21.33;77.47
21980;BME280;11154;48.558;9.234;2022-09-09T09:50:20;97255.59;;;21.39;80.30
21980;BME280;11154;48.558;9.234;2022-09-09T09:52:23;97260.31;;;21.44;79.42
21980;BME280;11154;48.558;9.234;2022-09-09T09:54:28;97258.22;;;21.57;77.24
21980;BME280;11154;48.558;9.234;2022-09-09T09:56:31;97253.50;;;21.76;82.95
21980;BME280;11154;48.558;9.234;2022-09-09T09:58:37;97240.06;;;21.80;77.50
21980;BME280;11154;48.558;9.234;2022-09-09T10:00:50;97248.19;;;21.92;77.61
21980;BME280;11154;48.558;9.234;2022-09-09T10:02:52;97234.22;;;22.11;76.23
21980;BME280;11154;48.558;9.234;2022-09-09T10:05:02;97234.44;;;22.21;71.19
21980;BME280;11154;48.558;9.234;2022-09-09T10:07:11;97244.94;;;22.18;71.20
21980;BME280;11154;48.558;9.234;2022-09-09T10:09:22;97246.63;;;21.96;68.96
21980;BME280;11154;48.558;9.234;2022-09-09T10:11:41;97229.59;;;21.84;70.49
21980;BME280;11154;48.558;9.234;2022-09-09T10:13:53;97231.94;;;21.80;75.54
21980;BME280;11154;48.558;9.234;2022-09-09T10:16:08;97230.28;;;21.79;75.37
21980;BME280;11154;48.558;9.234;2022-09-09T10:18:34;97229.00;;;21.82;73.59
21980;BME280;11154;48.558;9.234;2022-09-09T10:20:42;97228.53;;;21.85;72.64
21980;BME280;11154;48.558;9.234;2022-09-09T10:22:51;97225.22;;;21.83;71.42
21980;BME280;11154;48.558;9.234;2022-09-09T10:25:14;97229.47;;;21.79;70.14
21980;BME280;11154;48.558;9.234;2022-09-09T10:27:24;97227.34;;;21.81;72.81
21980;BME280;11154;48.558;9.234;2022-09-09T10:29:39;97218.00;;;22.00;74.24
21980;BME280;11154;48.558;9.234;2022-09-09T10:31:54;97221.59;;;22.17;71.03
21980;BME280;11154;48.558;9.234;2022-09-09T10:34:04;97210.63;;;22.23;67.59
21980;BME280;11154;48.558;9.234;2022-09-09T10:36:12;97216.50;;;22.32;67.46
21980;BME280;11154;48.558;9.234;2022-09-09T10:38:23;97217.78;;;22.41;68.73
21980;BME280;11154;48.558;9.234;2022-09-09T10:40:32;97215.78;;;22.36;68.07
21980;BME280;11154;48.558;9.234;2022-09-09T10:42:34;97224.63;;;22.32;70.26
21980;BME280;11154;48.558;9.234;2022-09-09T10:44:46;97214.97;;;22.36;71.47
21980;BME280;11154;48.558;9.234;2022-09-09T10:47:11;97211.38;;;22.47;68.56
21980;BME280;11154;48.558;9.234;2022-09-09T10:49:24;97205.97;;;22.47;63.29
21980;BME280;11154;48.558;9.234;2022-09-09T10:51:36;97211.19;;;22.37;59.87
21980;BME280;11154;48.558;9.234;2022-09-09T10:53:52;97212.00;;;22.26;58.59
21980;BME280;11154;48.558;9.234;2022-09-09T10:55:59;97209.28;;;22.37;66.14
21980;BME280;11154;48.558;9.234;2022-09-09T10:58:03;97198.88;;;22.46;62.96